Αρχική σελίδα
METAR-TAF:

METAR-TAF

Αεροδρόμια :

Ouargla, Αλγερία

γεωγραφικό πλάτος: 31-55N, γεωγραφικό μήκος: 005-24E, υψόμετρο: 141 μ

METAR: λείπει

Χρόνος: 19:36 (18:36 UTC)

Πρόγνωση Καιρού

Η αναφορά έγινε 1 ώρα και 36 λεπτά πριν, στις 17:00 UTC
Η πρόγνωση ισχύει από τις 18 στις 18 UTC έως τις 19 στις 03 UTC
Άνεμος 8 kt από Ν/NA
Ορατότητα: 8000 μ

TAF: DAUU 181700Z 1818/1903 16008KT 8000 NSC

Μετεωρολογικές αναφορές και προγνώσεις για περισσότερα από 4000 αεροδρόμια (δελτία METAR και TAF).

Οι διαθέσιμοι σταθμοί απεικονίζονται στο χάρτη με κίτρινες και κόκκινες κουκκίδες.

Μετακινήστε το ποντίκι πάνω από τις κουκκίδες για να δείτε το όνομα του σταθμού.

Στη συνέχεια, κάντε κλικ για να δείτε τις μετεωρολογικές αναφορές και τις προγνώσεις καιρού.

Για να αλλάξετε το χάρτη: κάντε κλικ στα πράσινα κουμπιά με τον μαύρο σταυρό για να ζουμάρετε, στο πράσινο κουμπί με την παύλα για να αφαιρέσετε το ζουμ ή στα πράσινα βέλη για να αντιπαραβάλλετε χάρτες.


METAR-TAF: